createdAt,value
2022-11-24T00:03:30.058Z,2.38
2022-11-24T00:08:34.329Z,2.34
2022-11-24T00:13:41.591Z,2.23
2022-11-24T00:18:47.522Z,2.49
2022-11-24T00:23:51.822Z,2.49
2022-11-24T00:28:57.642Z,2.40
2022-11-24T00:34:03.825Z,2.36
2022-11-24T00:39:14.850Z,2.18
2022-11-24T00:44:18.133Z,2.58
2022-11-24T00:49:21.549Z,2.42
2022-11-24T00:54:24.962Z,2.45
2022-11-24T00:59:28.379Z,2.12
2022-11-24T01:04:31.946Z,2.71
2022-11-24T01:09:35.517Z,2.43
2022-11-24T01:14:39.652Z,2.29
2022-11-24T01:19:42.864Z,2.20
2022-11-24T01:24:46.278Z,2.41
2022-11-24T01:29:49.489Z,2.74
2022-11-24T01:34:52.802Z,2.97
2022-11-24T01:39:56.219Z,3.01
2022-11-24T01:45:30.664Z,2.94
2022-11-24T01:50:36.013Z,2.87
2022-11-24T01:55:40.159Z,2.95
2022-11-24T02:00:45.415Z,2.85
2022-11-24T02:05:58.148Z,2.69
2022-11-24T02:11:04.636Z,2.34
2022-11-24T02:16:10.886Z,2.41
2022-11-24T02:21:16.359Z,2.65
2022-11-24T02:26:46.834Z,3.29
2022-11-24T02:31:58.541Z,3.97
2022-11-24T02:37:01.756Z,3.16
2022-11-24T02:42:12.750Z,1.42
2022-11-24T02:47:15.962Z,1.21
2022-11-24T02:52:19.684Z,2.17
2022-11-24T02:57:23.682Z,5.03
2022-11-24T03:02:27.004Z,5.16
2022-11-24T03:07:30.376Z,2.68
2022-11-24T03:12:33.759Z,4.89
2022-11-24T03:17:37.277Z,3.13
2022-11-24T03:22:41.841Z,3.98
2022-11-24T03:27:45.437Z,3.45
2022-11-24T03:32:48.755Z,3.56
2022-11-24T03:37:52.043Z,3.29
2022-11-24T03:42:55.481Z,3.48
2022-11-24T03:47:58.698Z,3.60
2022-11-24T03:53:02.008Z,3.33
2022-11-24T03:58:05.322Z,3.34
2022-11-24T04:03:09.358Z,3.39
2022-11-24T04:08:13.457Z,3.17
2022-11-24T04:13:19.465Z,2.90
2022-11-24T04:18:23.184Z,2.65
2022-11-24T04:23:26.501Z,2.36
2022-11-24T04:28:29.816Z,2.25
2022-11-24T04:33:33.438Z,2.30
2022-11-24T04:39:25.933Z,2.40
2022-11-24T04:44:00.027Z,2.37
2022-11-24T04:49:03.446Z,2.53
2022-11-24T04:54:12.527Z,2.71
2022-11-24T04:59:15.909Z,2.59
2022-11-24T05:04:21.669Z,2.26
2022-11-24T05:09:36.916Z,2.31
2022-11-24T05:14:48.368Z,2.20
2022-11-24T05:19:51.577Z,2.30
2022-11-24T05:24:54.796Z,2.19
2022-11-24T05:29:58.101Z,2.08
2022-11-24T05:35:02.544Z,2.08
2022-11-24T05:40:07.265Z,2.25
2022-11-24T05:45:14.031Z,2.75
2022-11-24T05:50:20.706Z,3.19
2022-11-24T05:55:23.784Z,3.39
2022-11-24T06:00:27.610Z,3.49
2022-11-24T06:05:30.913Z,3.63
2022-11-24T06:10:34.023Z,3.84
2022-11-24T06:15:37.973Z,3.98
2022-11-24T06:20:42.143Z,3.82
2022-11-24T06:25:51.304Z,3.91
2022-11-24T06:30:54.752Z,3.96
2022-11-24T06:36:05.850Z,3.87
2022-11-24T06:41:13.286Z,3.70
2022-11-24T06:46:16.330Z,3.46
2022-11-24T06:51:20.181Z,3.35
2022-11-24T06:56:23.160Z,3.50
2022-11-24T07:01:28.420Z,3.70
2022-11-24T07:06:31.569Z,3.87
2022-11-24T07:11:35.358Z,4.00
2022-11-24T07:16:39.657Z,4.05
2022-11-24T07:21:42.633Z,4.18
2022-11-24T07:26:45.946Z,4.14
2022-11-24T07:31:49.118Z,3.86
2022-11-24T07:36:52.372Z,3.65
2022-11-24T07:41:55.580Z,3.86
2022-11-24T07:46:58.598Z,4.18
2022-11-24T07:52:02.008Z,4.53
2022-11-24T07:57:05.221Z,4.72
2022-11-24T08:02:12.402Z,4.28
2022-11-24T08:07:15.413Z,3.59
2022-11-24T08:12:22.702Z,4.04
2022-11-24T08:17:25.739Z,3.49
2022-11-24T08:22:28.847Z,3.39
2022-11-24T08:27:31.960Z,3.22
2022-11-24T08:32:35.165Z,3.33
2022-11-24T08:37:38.277Z,3.47
2022-11-24T08:42:41.286Z,3.19
2022-11-24T08:47:44.393Z,3.01
2022-11-24T08:52:47.605Z,2.87
2022-11-24T08:57:50.715Z,2.21
2022-11-24T09:02:57.891Z,2.30
2022-11-24T09:08:01.128Z,2.51
2022-11-24T09:13:04.650Z,2.67
2022-11-24T09:18:07.758Z,3.01
2022-11-24T09:23:11.476Z,3.18
2022-11-24T09:28:14.584Z,3.25
2022-11-24T09:33:17.692Z,3.28
2022-11-24T09:38:20.813Z,3.12
2022-11-24T09:43:34.050Z,3.07
2022-11-24T09:48:41.666Z,3.19
2022-11-24T09:53:53.682Z,3.30
2022-11-24T09:59:03.246Z,3.52
2022-11-24T10:04:16.621Z,3.65
2022-11-24T10:09:45.833Z,3.61
2022-11-24T10:15:07.360Z,3.65
2022-11-24T10:20:27.355Z,3.78
2022-11-24T10:25:59.152Z,3.85
2022-11-24T10:31:27.712Z,4.00
2022-11-24T10:36:51.211Z,3.76
2022-11-24T10:42:06.013Z,3.69
2022-11-24T10:47:28.244Z,3.62
2022-11-24T10:52:40.389Z,3.51
2022-11-24T10:57:45.226Z,3.34
2022-11-24T11:02:50.698Z,3.43
2022-11-24T11:08:20.050Z,3.20
2022-11-24T11:13:30.874Z,3.14
2022-11-24T11:18:34.232Z,3.06
2022-11-24T11:23:38.160Z,3.13
2022-11-24T11:28:41.273Z,3.23
2022-11-24T11:34:04.145Z,3.14
2022-11-24T11:39:35.070Z,3.17
2022-11-24T11:44:49.008Z,3.22
2022-11-24T11:49:53.120Z,3.37
2022-11-24T11:55:22.316Z,3.51
2022-11-24T12:00:25.425Z,3.43
2022-11-24T12:05:46.559Z,3.49
2022-11-24T12:11:10.087Z,3.60
2022-11-24T12:16:41.823Z,3.72
2022-11-24T12:22:03.467Z,3.78
2022-11-24T12:27:23.289Z,3.81
2022-11-24T12:33:03.957Z,3.56
2022-11-24T12:38:27.772Z,3.54
2022-11-24T12:43:35.781Z,3.51
2022-11-24T12:48:38.677Z,3.53
2022-11-24T12:53:43.478Z,3.51
2022-11-24T12:59:06.606Z,3.43
2022-11-24T13:04:39.205Z,3.42
2022-11-24T13:10:26.365Z,3.42
2022-11-24T13:16:20.598Z,3.19
2022-11-24T13:21:51.870Z,3.12
2022-11-24T13:27:24.631Z,2.84
2022-11-24T13:32:33.675Z,2.78
2022-11-24T13:37:36.788Z,2.92
2022-11-24T13:42:54.845Z,2.89
2022-11-24T13:47:58.058Z,2.83
2022-11-24T13:53:18.060Z,2.99
2022-11-24T13:58:27.621Z,2.99
2022-11-24T14:03:55.478Z,2.88
2022-11-24T14:09:42.651Z,2.76
2022-11-24T14:14:51.456Z,2.62
2022-11-24T14:19:56.970Z,2.74
2022-11-24T14:25:02.412Z,2.85
2022-11-24T14:30:06.464Z,2.91
2022-11-24T14:35:43.667Z,2.83
2022-11-24T14:40:50.256Z,2.49
2022-11-24T14:45:57.298Z,2.35
2022-11-24T14:51:14.678Z,2.09
2022-11-24T14:56:26.411Z,2.15
2022-11-24T15:01:29.847Z,2.15
2022-11-24T15:06:33.146Z,2.02
2022-11-24T15:11:36.356Z,2.17
2022-11-24T15:16:40.196Z,2.20
2022-11-24T15:21:43.492Z,2.34
2022-11-24T15:26:46.905Z,2.50
2022-11-24T15:31:52.839Z,2.61
2022-11-24T15:36:56.607Z,2.76
2022-11-24T15:41:59.820Z,2.82
2022-11-24T15:47:03.052Z,2.92
2022-11-24T15:52:07.060Z,2.94
2022-11-24T15:57:11.066Z,2.99
2022-11-24T16:02:14.201Z,3.07
2022-11-24T16:07:17.446Z,3.13
2022-11-24T16:12:20.622Z,3.12
2022-11-24T16:17:23.726Z,3.14
2022-11-24T16:22:26.732Z,3.09
2022-11-24T16:27:30.045Z,3.03
2022-11-24T16:32:33.056Z,2.71
2022-11-24T16:37:36.474Z,2.45
2022-11-24T16:42:39.696Z,2.55
2022-11-24T16:47:43.196Z,2.72
2022-11-24T16:52:46.316Z,2.94
2022-11-24T16:57:49.423Z,3.06
2022-11-24T17:02:52.472Z,3.17
2022-11-24T17:07:55.759Z,3.15
2022-11-24T17:12:59.068Z,3.05
2022-11-24T17:18:23.474Z,3.07
2022-11-24T17:23:26.247Z,3.09
2022-11-24T17:28:29.950Z,3.02
2022-11-24T17:33:33.096Z,2.85
2022-11-24T17:38:37.091Z,2.64
2022-11-24T17:43:40.234Z,2.69
2022-11-24T17:48:43.440Z,2.89
2022-11-24T17:53:49.565Z,3.00
2022-11-24T17:58:57.955Z,3.06
2022-11-24T18:04:01.480Z,3.09
2022-11-24T18:09:04.584Z,3.15
2022-11-24T18:14:07.790Z,3.32
2022-11-24T18:19:11.510Z,3.39
2022-11-24T18:24:17.488Z,3.49
2022-11-24T18:29:24.396Z,3.48
2022-11-24T18:34:27.601Z,3.35
2022-11-24T18:39:30.707Z,3.34
2022-11-24T18:44:34.406Z,3.36
2022-11-24T18:49:37.649Z,3.29
2022-11-24T18:54:40.868Z,3.28
2022-11-24T18:59:44.070Z,3.24
2022-11-24T19:04:47.281Z,3.20
2022-11-24T19:09:50.384Z,3.16
2022-11-24T19:14:54.725Z,3.20
2022-11-24T19:19:57.838Z,3.36
2022-11-24T19:25:00.949Z,3.35
2022-11-24T19:30:04.526Z,3.23
2022-11-24T19:35:07.948Z,3.25
2022-11-24T19:40:11.521Z,3.35
2022-11-24T19:45:14.619Z,3.27
2022-11-24T19:50:18.635Z,3.29
2022-11-24T19:55:21.845Z,3.33
2022-11-24T20:00:29.107Z,3.39
2022-11-24T20:05:34.886Z,3.42
2022-11-24T20:10:42.485Z,3.34
2022-11-24T20:15:45.646Z,3.24
2022-11-24T20:20:48.672Z,3.09
2022-11-24T20:25:51.873Z,2.96
2022-11-24T20:30:54.974Z,2.62
2022-11-24T20:36:13.136Z,2.57
2022-11-24T20:41:17.984Z,2.30
2022-11-24T20:46:27.238Z,2.16
2022-11-24T20:51:33.322Z,2.14
2022-11-24T20:56:39.869Z,2.01
2022-11-24T21:01:45.585Z,2.00
2022-11-24T21:06:49.404Z,3.15
2022-11-24T21:11:52.573Z,5.64
2022-11-24T21:16:55.652Z,4.00
2022-11-24T21:21:58.730Z,2.86
2022-11-24T21:27:01.742Z,2.98
2022-11-24T21:32:05.483Z,3.09
2022-11-24T21:37:08.569Z,3.05
2022-11-24T21:42:11.783Z,3.04
2022-11-24T21:47:14.888Z,2.99
2022-11-24T21:52:17.999Z,3.14
2022-11-24T21:57:23.255Z,3.35
2022-11-24T22:02:26.345Z,3.35
2022-11-24T22:07:33.032Z,3.38
2022-11-24T22:12:36.061Z,3.23
2022-11-24T22:17:39.123Z,3.16
2022-11-24T22:22:42.278Z,3.20
2022-11-24T22:27:45.297Z,3.24
2022-11-24T22:32:48.396Z,3.20
2022-11-24T22:37:51.900Z,3.24
2022-11-24T22:42:54.921Z,3.13
2022-11-24T22:47:58.098Z,2.99
2022-11-24T22:53:01.340Z,2.88
2022-11-24T22:58:04.354Z,2.82
2022-11-24T23:03:07.386Z,2.66
2022-11-24T23:08:10.564Z,2.53
2022-11-24T23:13:13.775Z,2.44
2022-11-24T23:18:16.785Z,2.45
2022-11-24T23:23:19.898Z,2.62
2022-11-24T23:28:23.000Z,2.72
2022-11-24T23:33:26.107Z,2.66
2022-11-24T23:38:32.549Z,2.81
2022-11-24T23:43:35.816Z,2.87
2022-11-24T23:48:39.810Z,2.80
2022-11-24T23:53:44.176Z,2.92
2022-11-24T23:58:48.121Z,2.99
